createdAt,value
2019-02-18T00:02:00.235Z,41.67
2019-02-18T00:04:28.360Z,41.75
2019-02-18T00:06:56.513Z,43.60
2019-02-18T00:09:24.578Z,42.23
2019-02-18T00:11:52.710Z,43.78
2019-02-18T00:14:20.895Z,43.28
2019-02-18T00:16:49.093Z,41.92
2019-02-18T00:19:17.230Z,40.85
2019-02-18T00:21:45.373Z,42.20
2019-02-18T00:24:13.521Z,42.53
2019-02-18T00:26:41.652Z,43.75
2019-02-18T00:29:09.796Z,43.98
2019-02-18T00:31:38.114Z,45.15
2019-02-18T00:34:06.264Z,44.58
2019-02-18T00:36:34.317Z,46.13
2019-02-18T00:39:04.522Z,44.93
2019-02-18T00:41:32.910Z,42.88
2019-02-18T00:44:01.044Z,43.15
2019-02-18T00:46:29.216Z,42.30
2019-02-18T00:48:57.432Z,43.68
2019-02-18T00:51:25.514Z,43.52
2019-02-18T00:53:53.642Z,45.43
2019-02-18T00:56:21.802Z,46.30
2019-02-18T00:58:49.969Z,44.70
2019-02-18T01:01:18.085Z,43.10
2019-02-18T01:03:49.242Z,43.13
2019-02-18T01:06:17.377Z,43.10
2019-02-18T01:08:45.522Z,42.15
2019-02-18T01:11:13.686Z,43.55
2019-02-18T01:13:41.824Z,45.30
2019-02-18T01:16:10.040Z,44.95
2019-02-18T01:18:38.263Z,43.60
2019-02-18T01:21:06.837Z,44.70
2019-02-18T01:23:35.100Z,44.05
2019-02-18T01:26:03.228Z,45.58
2019-02-18T01:28:31.774Z,45.48
2019-02-18T01:30:59.869Z,43.78
2019-02-18T01:33:28.322Z,44.67
2019-02-18T01:35:56.456Z,45.08
2019-02-18T01:38:24.730Z,43.02
2019-02-18T01:40:52.893Z,43.47
2019-02-18T01:43:21.036Z,44.15
2019-02-18T01:45:49.173Z,43.00
2019-02-18T01:48:17.300Z,44.53
2019-02-18T01:50:45.357Z,43.05
2019-02-18T01:53:13.410Z,44.90
2019-02-18T01:55:41.619Z,43.80
2019-02-18T01:58:09.741Z,43.30
2019-02-18T02:00:38.093Z,43.55
2019-02-18T02:03:06.450Z,44.30
2019-02-18T02:05:34.785Z,45.92
2019-02-18T02:08:03.247Z,43.30
2019-02-18T02:10:31.374Z,42.03
2019-02-18T02:13:19.178Z,43.10
2019-02-18T02:15:47.312Z,44.70
2019-02-18T02:18:15.465Z,43.70
2019-02-18T02:20:43.614Z,45.93
2019-02-18T02:23:11.746Z,44.83
2019-02-18T02:25:40.273Z,44.98
2019-02-18T02:28:08.402Z,43.75
2019-02-18T02:30:36.678Z,45.00
2019-02-18T02:33:04.923Z,43.87
2019-02-18T02:35:33.206Z,41.50
2019-02-18T02:38:07.552Z,44.10
2019-02-18T02:40:31.194Z,44.00
2019-02-18T02:42:59.354Z,44.30
2019-02-18T02:45:27.483Z,43.42
2019-02-18T02:47:55.611Z,42.78
2019-02-18T02:50:23.850Z,43.58
2019-02-18T02:52:51.968Z,43.17
2019-02-18T02:55:20.147Z,41.43
2019-02-18T02:57:48.273Z,42.98
2019-02-18T03:00:16.421Z,42.60
2019-02-18T03:02:44.550Z,43.80
2019-02-18T03:05:12.685Z,42.58
2019-02-18T03:07:40.760Z,43.25
2019-02-18T03:10:09.973Z,42.53
2019-02-18T03:12:38.282Z,42.10
2019-02-18T03:15:14.528Z,43.08
2019-02-18T03:17:43.073Z,43.23
2019-02-18T03:20:11.846Z,42.17
2019-02-18T03:22:40.150Z,41.35
2019-02-18T03:25:10.187Z,40.20
2019-02-18T03:27:38.259Z,42.43
2019-02-18T03:30:24.792Z,40.35
2019-02-18T03:32:52.906Z,41.77
2019-02-18T03:35:21.034Z,42.53
2019-02-18T03:37:49.199Z,42.08
2019-02-18T03:40:17.384Z,43.95
2019-02-18T03:42:45.465Z,41.70
2019-02-18T03:45:13.605Z,40.70
2019-02-18T03:47:41.739Z,40.60
2019-02-18T03:50:09.868Z,41.93
2019-02-18T03:52:37.947Z,41.03
2019-02-18T03:55:07.569Z,39.83
2019-02-18T03:57:35.710Z,41.98
2019-02-18T04:00:05.312Z,41.77
2019-02-18T04:02:33.458Z,42.80
2019-02-18T04:05:01.597Z,41.42
2019-02-18T04:07:29.789Z,40.20
2019-02-18T04:09:57.934Z,39.70
2019-02-18T04:12:26.134Z,40.63
2019-02-18T04:14:54.272Z,40.47
2019-02-18T04:17:22.501Z,41.70
2019-02-18T04:19:50.628Z,39.10
2019-02-18T04:22:18.784Z,42.17
2019-02-18T04:24:46.921Z,41.53
2019-02-18T04:27:15.084Z,39.90
2019-02-18T04:29:43.234Z,41.13
2019-02-18T04:32:11.377Z,40.37
2019-02-18T04:34:39.512Z,40.63
2019-02-18T04:37:07.670Z,41.28
2019-02-18T04:39:35.807Z,41.60
2019-02-18T04:42:03.861Z,43.28
2019-02-18T04:44:32.070Z,40.98
2019-02-18T04:47:01.067Z,40.67
2019-02-18T04:49:29.218Z,41.60
2019-02-18T04:51:57.337Z,39.53
2019-02-18T04:54:25.500Z,40.83
2019-02-18T04:56:53.695Z,40.50
2019-02-18T04:59:21.830Z,41.20
2019-02-18T05:01:49.971Z,42.20
2019-02-18T05:04:18.114Z,41.85
2019-02-18T05:06:46.269Z,40.55
2019-02-18T05:09:14.407Z,42.38
2019-02-18T05:11:42.573Z,41.90
2019-02-18T05:14:10.715Z,41.50
2019-02-18T05:16:38.838Z,40.15
2019-02-18T05:19:06.894Z,40.65
2019-02-18T05:21:35.072Z,40.27
2019-02-18T05:24:03.211Z,40.55
2019-02-18T05:26:31.424Z,40.58
2019-02-18T05:29:00.219Z,40.63
2019-02-18T05:31:28.345Z,40.35
2019-02-18T05:33:56.475Z,40.05
2019-02-18T05:36:24.633Z,39.40
2019-02-18T05:38:52.753Z,40.50
2019-02-18T05:41:20.936Z,38.78
2019-02-18T05:43:49.021Z,40.33
2019-02-18T05:46:17.137Z,40.20
2019-02-18T05:48:45.264Z,41.02
2019-02-18T05:51:13.369Z,39.87
2019-02-18T05:53:41.515Z,40.03
2019-02-18T05:56:09.632Z,40.85
2019-02-18T05:58:37.694Z,38.33
2019-02-18T06:01:05.849Z,39.53
2019-02-18T06:03:33.978Z,39.50
2019-02-18T06:06:02.101Z,40.05
2019-02-18T06:08:30.268Z,41.70
2019-02-18T06:10:58.393Z,39.85
2019-02-18T06:13:26.612Z,40.03
2019-02-18T06:15:54.745Z,40.75
2019-02-18T06:18:22.818Z,40.73
2019-02-18T06:20:50.946Z,41.37
2019-02-18T06:23:19.097Z,40.80
2019-02-18T06:25:47.234Z,40.75
2019-02-18T06:28:15.412Z,40.17
2019-02-18T06:30:43.553Z,42.50
2019-02-18T06:33:11.796Z,41.00
2019-02-18T06:35:39.897Z,43.33
2019-02-18T06:38:08.120Z,40.65
2019-02-18T06:40:36.329Z,40.80
2019-02-18T06:43:04.456Z,40.98
2019-02-18T06:45:37.073Z,41.15
2019-02-18T06:48:07.182Z,41.02
2019-02-18T06:50:35.312Z,40.15
2019-02-18T06:53:03.465Z,40.15
2019-02-18T06:55:31.668Z,39.10
2019-02-18T06:58:13.575Z,38.23
2019-02-18T07:00:46.393Z,40.30
2019-02-18T07:03:18.546Z,40.88
2019-02-18T07:05:59.567Z,40.28
2019-02-18T07:08:44.398Z,41.73
2019-02-18T07:11:14.179Z,43.92
2019-02-18T07:13:42.318Z,43.27
2019-02-18T07:16:10.459Z,44.23
2019-02-18T07:18:38.628Z,41.92
2019-02-18T07:21:06.783Z,42.00
2019-02-18T07:23:34.911Z,41.23
2019-02-18T07:26:03.053Z,43.65
2019-02-18T07:28:31.222Z,40.30
2019-02-18T07:30:59.502Z,42.50
2019-02-18T07:33:27.652Z,42.03
2019-02-18T07:35:55.822Z,42.75
2019-02-18T07:38:24.325Z,39.90
2019-02-18T07:40:52.503Z,42.75
2019-02-18T07:43:22.981Z,42.63
2019-02-18T07:45:50.514Z,42.03
2019-02-18T07:48:18.642Z,41.42
2019-02-18T07:51:07.152Z,41.58
2019-02-18T07:53:35.301Z,41.77
2019-02-18T07:56:03.449Z,40.50
2019-02-18T07:58:31.624Z,44.40
2019-02-18T08:00:59.753Z,43.50
2019-02-18T08:03:27.878Z,41.80
2019-02-18T08:05:56.467Z,43.97
2019-02-18T08:08:24.843Z,41.10
2019-02-18T08:10:52.955Z,40.78
2019-02-18T08:13:21.149Z,39.85
2019-02-18T08:15:49.350Z,40.03
2019-02-18T08:18:17.480Z,41.00
2019-02-18T08:20:45.594Z,40.40
2019-02-18T08:23:14.034Z,40.08
2019-02-18T08:25:42.168Z,41.25
2019-02-18T08:28:10.304Z,41.30
2019-02-18T08:30:38.443Z,42.90
2019-02-18T08:33:06.575Z,47.23
2019-02-18T08:35:34.813Z,43.73
2019-02-18T08:38:03.242Z,41.02
2019-02-18T08:40:31.964Z,44.93
2019-02-18T08:43:00.105Z,43.60
2019-02-18T08:45:28.243Z,42.20
2019-02-18T08:47:56.404Z,42.85
2019-02-18T08:50:24.559Z,40.78
2019-02-18T08:52:52.696Z,42.08
2019-02-18T08:55:20.831Z,43.35
2019-02-18T08:57:48.961Z,41.40
2019-02-18T09:00:17.097Z,40.47
2019-02-18T09:02:45.490Z,39.15
2019-02-18T09:05:13.681Z,40.45
2019-02-18T09:07:41.894Z,39.83
2019-02-18T09:10:11.379Z,39.80
2019-02-18T09:12:39.481Z,37.90
2019-02-18T09:15:08.603Z,43.15
2019-02-18T09:17:36.744Z,39.58
2019-02-18T09:20:05.946Z,42.78
2019-02-18T09:22:51.712Z,40.50
2019-02-18T09:25:24.317Z,39.03
2019-02-18T09:27:52.452Z,39.98
2019-02-18T09:30:22.233Z,39.93
2019-02-18T09:32:50.365Z,39.45
2019-02-18T09:35:18.510Z,38.75
2019-02-18T09:37:46.893Z,39.80
2019-02-18T09:40:15.033Z,39.50
2019-02-18T09:42:43.314Z,38.60
2019-02-18T09:45:14.557Z,39.83
2019-02-18T09:48:01.221Z,40.30
2019-02-18T09:50:54.445Z,37.15
2019-02-18T09:53:22.585Z,38.48
2019-02-18T09:55:50.833Z,40.63
2019-02-18T09:58:18.971Z,40.50
2019-02-18T10:00:47.087Z,39.07
2019-02-18T10:03:15.150Z,37.77
2019-02-18T10:05:43.340Z,38.37
2019-02-18T10:08:11.468Z,37.83
2019-02-18T10:10:39.694Z,36.50
2019-02-18T10:13:08.257Z,37.33
2019-02-18T10:15:36.408Z,35.87
2019-02-18T10:18:04.615Z,37.93
2019-02-18T10:20:32.783Z,38.53
2019-02-18T10:23:01.033Z,36.63
2019-02-18T10:25:29.217Z,38.28
2019-02-18T10:27:57.384Z,38.35
2019-02-18T10:30:25.518Z,37.25
2019-02-18T10:32:53.657Z,36.75
2019-02-18T10:35:21.797Z,37.53
2019-02-18T10:37:55.045Z,35.77
2019-02-18T10:40:21.066Z,36.53
2019-02-18T10:42:49.129Z,37.28
2019-02-18T10:45:17.278Z,36.77
2019-02-18T10:47:45.469Z,35.23
2019-02-18T10:50:13.711Z,34.98
2019-02-18T10:52:42.167Z,35.95
2019-02-18T10:55:10.821Z,34.95
2019-02-18T10:57:58.686Z,36.70
2019-02-18T11:00:27.950Z,35.88
2019-02-18T11:02:56.110Z,36.05
2019-02-18T11:05:24.254Z,34.92
2019-02-18T11:07:52.378Z,34.33
2019-02-18T11:10:20.511Z,35.23
2019-02-18T11:12:48.664Z,33.98
2019-02-18T11:15:17.097Z,33.48
2019-02-18T11:17:45.647Z,32.90
2019-02-18T11:20:14.243Z,32.95
2019-02-18T11:22:42.407Z,33.48
2019-02-18T11:25:12.236Z,33.08
2019-02-18T11:27:40.363Z,33.63
2019-02-18T11:30:16.253Z,31.85
2019-02-18T11:32:44.396Z,31.87
2019-02-18T11:35:12.649Z,30.68
2019-02-18T11:37:40.811Z,31.70
2019-02-18T11:40:32.815Z,32.65
2019-02-18T11:43:01.419Z,31.40
2019-02-18T11:45:29.544Z,31.40
2019-02-18T11:47:57.680Z,31.23
2019-02-18T11:50:25.836Z,30.00
2019-02-18T11:52:54.008Z,29.02
2019-02-18T11:55:22.171Z,30.32
2019-02-18T11:57:50.318Z,30.43
2019-02-18T12:00:18.532Z,35.10
2019-02-18T12:02:46.736Z,35.05
2019-02-18T12:05:14.886Z,32.88
2019-02-18T12:07:43.028Z,32.93
2019-02-18T12:10:11.720Z,32.93
2019-02-18T12:12:40.182Z,33.23
2019-02-18T12:15:11.940Z,30.37
2019-02-18T12:17:40.446Z,29.60
2019-02-18T12:20:10.574Z,30.08
2019-02-18T12:22:38.709Z,29.85
2019-02-18T12:25:06.842Z,31.90
2019-02-18T12:27:34.990Z,29.10
2019-02-18T12:30:03.813Z,30.60
2019-02-18T12:32:31.969Z,28.52
2019-02-18T12:35:00.102Z,26.33
2019-02-18T12:37:30.034Z,29.07
2019-02-18T12:39:58.073Z,28.00
2019-02-18T12:42:26.223Z,29.23
2019-02-18T12:44:54.956Z,31.15
2019-02-18T12:47:23.081Z,29.00
2019-02-18T12:49:51.541Z,30.17
2019-02-18T12:52:19.810Z,32.48
2019-02-18T12:54:47.991Z,31.37
2019-02-18T12:57:16.170Z,29.02
2019-02-18T12:59:44.411Z,33.10
2019-02-18T13:02:13.029Z,30.00
2019-02-18T13:04:41.269Z,33.23
2019-02-18T13:07:09.413Z,34.13
2019-02-18T13:09:37.580Z,35.83
2019-02-18T13:12:05.792Z,37.30
2019-02-18T13:14:33.905Z,37.75
2019-02-18T13:17:02.143Z,38.17
2019-02-18T13:19:30.346Z,36.88
2019-02-18T13:21:59.072Z,39.53
2019-02-18T13:24:27.373Z,34.08
2019-02-18T13:26:55.579Z,32.50
2019-02-18T13:29:23.700Z,29.73
2019-02-18T13:31:51.829Z,34.97
2019-02-18T13:34:19.966Z,31.10
2019-02-18T13:36:48.119Z,33.67
2019-02-18T13:39:16.637Z,29.90
2019-02-18T13:41:44.837Z,33.53
2019-02-18T13:44:12.985Z,32.33
2019-02-18T13:46:41.390Z,34.40
2019-02-18T13:49:09.532Z,31.42
2019-02-18T13:51:37.661Z,31.30
2019-02-18T13:54:05.813Z,29.92
2019-02-18T13:56:34.374Z,33.42
2019-02-18T13:59:02.513Z,30.12
2019-02-18T14:01:30.651Z,30.62
2019-02-18T14:03:58.818Z,31.55
2019-02-18T14:06:27.009Z,33.05
2019-02-18T14:08:55.115Z,34.00
2019-02-18T14:11:23.304Z,31.02
2019-02-18T14:13:51.433Z,34.43
2019-02-18T14:16:19.593Z,33.23
2019-02-18T14:18:47.976Z,30.90
2019-02-18T14:21:16.149Z,31.33
2019-02-18T14:23:44.326Z,29.72
2019-02-18T14:26:12.631Z,32.67
2019-02-18T14:28:41.397Z,31.62
2019-02-18T14:31:09.627Z,32.05
2019-02-18T14:33:37.769Z,33.67
2019-02-18T14:36:06.265Z,33.20
2019-02-18T14:38:34.390Z,35.37
2019-02-18T14:41:02.691Z,36.00
2019-02-18T14:43:30.843Z,36.35
2019-02-18T14:45:58.964Z,35.00
2019-02-18T14:48:27.114Z,34.98
2019-02-18T14:50:57.153Z,32.08
2019-02-18T14:53:25.460Z,32.98
2019-02-18T14:55:53.624Z,34.27
2019-02-18T14:58:21.767Z,32.95
2019-02-18T15:00:50.306Z,31.33
2019-02-18T15:03:18.435Z,30.90
2019-02-18T15:05:46.667Z,31.02
2019-02-18T15:08:15.170Z,30.77
2019-02-18T15:10:43.290Z,30.13
2019-02-18T15:13:11.499Z,28.62
2019-02-18T15:15:39.647Z,28.57
2019-02-18T15:18:07.798Z,30.43
2019-02-18T15:20:36.062Z,28.38
2019-02-18T15:23:04.506Z,27.40
2019-02-18T15:25:32.645Z,27.95
2019-02-18T15:28:08.381Z,31.20
2019-02-18T15:30:37.641Z,28.15
2019-02-18T15:33:05.790Z,29.30
2019-02-18T15:35:34.128Z,29.15
2019-02-18T15:38:02.288Z,27.60
2019-02-18T15:40:30.420Z,27.73
2019-02-18T15:42:58.558Z,26.55
2019-02-18T15:45:26.722Z,26.00
2019-02-18T15:48:01.725Z,25.13
2019-02-18T15:50:26.886Z,23.35
2019-02-18T15:52:55.025Z,22.82
2019-02-18T15:55:23.239Z,26.27
2019-02-18T15:57:51.412Z,26.33
2019-02-18T16:00:21.561Z,25.92
2019-02-18T16:02:50.036Z,25.05
2019-02-18T16:05:18.242Z,24.92
2019-02-18T16:07:46.377Z,26.85
2019-02-18T16:10:14.520Z,28.25
2019-02-18T16:12:50.220Z,29.85
2019-02-18T16:15:12.595Z,34.00
2019-02-18T16:17:53.197Z,31.40
2019-02-18T16:20:21.353Z,37.77
2019-02-18T16:22:49.554Z,36.40
2019-02-18T16:25:19.327Z,36.73
2019-02-18T16:27:47.457Z,40.23
2019-02-18T16:30:15.654Z,42.03
2019-02-18T16:33:03.618Z,43.25
2019-02-18T16:35:32.146Z,55.35
2019-02-18T16:38:00.341Z,46.35
2019-02-18T16:40:28.702Z,49.20
2019-02-18T16:42:59.315Z,53.45
2019-02-18T16:45:26.768Z,47.70
2019-02-18T16:47:54.905Z,55.63
2019-02-18T16:50:23.038Z,51.33
2019-02-18T16:52:51.194Z,55.40
2019-02-18T16:55:19.490Z,64.43
2019-02-18T16:57:48.296Z,80.72
2019-02-18T17:00:24.157Z,71.77
2019-02-18T17:02:52.961Z,61.55
2019-02-18T17:05:27.168Z,56.13
2019-02-18T17:07:55.312Z,48.90
2019-02-18T17:10:23.451Z,54.30
2019-02-18T17:12:51.586Z,53.28
2019-02-18T17:15:39.250Z,50.97
2019-02-18T17:18:07.365Z,53.83
2019-02-18T17:20:35.513Z,60.78
2019-02-18T17:23:03.640Z,53.30
2019-02-18T17:25:31.810Z,49.35
2019-02-18T17:27:59.942Z,53.67
2019-02-18T17:30:28.078Z,51.83
2019-02-18T17:32:56.239Z,52.60
2019-02-18T17:35:24.445Z,48.83
2019-02-18T17:37:52.653Z,48.25
2019-02-18T17:40:20.862Z,50.43
2019-02-18T17:42:49.006Z,51.15
2019-02-18T17:45:17.448Z,45.58
2019-02-18T17:47:45.581Z,48.80
2019-02-18T17:50:14.496Z,46.00
2019-02-18T17:52:42.700Z,50.63
2019-02-18T17:55:12.465Z,48.17
2019-02-18T17:57:41.266Z,43.38
2019-02-18T18:00:14.097Z,45.45
2019-02-18T18:02:42.229Z,41.88
2019-02-18T18:05:10.535Z,40.73
2019-02-18T18:07:38.665Z,46.60
2019-02-18T18:10:08.661Z,46.00
2019-02-18T18:12:37.084Z,42.97
2019-02-18T18:15:07.035Z,43.50
2019-02-18T18:17:35.183Z,41.42
2019-02-18T18:20:03.756Z,43.77
2019-02-18T18:22:31.944Z,37.93
2019-02-18T18:25:00.220Z,38.55
2019-02-18T18:27:28.702Z,40.90
2019-02-18T18:29:56.833Z,42.15
2019-02-18T18:32:24.988Z,38.95
2019-02-18T18:34:53.122Z,40.92
2019-02-18T18:37:21.287Z,37.75
2019-02-18T18:39:49.445Z,39.25
2019-02-18T18:42:17.604Z,39.15
2019-02-18T18:44:46.037Z,34.85
2019-02-18T18:47:14.170Z,37.85
2019-02-18T18:49:42.317Z,37.50
2019-02-18T18:52:10.461Z,35.28
2019-02-18T18:54:38.596Z,32.30
2019-02-18T18:57:07.074Z,35.23
2019-02-18T18:59:35.497Z,34.85
2019-02-18T19:02:04.107Z,35.30
2019-02-18T19:04:32.273Z,37.38
2019-02-18T19:07:00.422Z,32.58
2019-02-18T19:09:28.628Z,32.97
2019-02-18T19:11:56.949Z,34.88
2019-02-18T19:14:25.050Z,33.58
2019-02-18T19:16:53.210Z,33.70
2019-02-18T19:19:21.337Z,33.15
2019-02-18T19:21:49.394Z,34.23
2019-02-18T19:24:17.608Z,34.35
2019-02-18T19:26:45.742Z,36.65
2019-02-18T19:29:13.884Z,44.80
2019-02-18T19:31:42.905Z,33.85
2019-02-18T19:34:10.969Z,38.42
2019-02-18T19:36:39.206Z,34.30
2019-02-18T19:39:07.770Z,32.48
2019-02-18T19:41:36.479Z,30.62
2019-02-18T19:44:04.618Z,32.83
2019-02-18T19:46:33.270Z,30.37
2019-02-18T19:49:01.493Z,32.20
2019-02-18T19:51:29.634Z,30.43
2019-02-18T19:53:57.779Z,32.70
2019-02-18T19:56:25.908Z,29.63
2019-02-18T19:58:54.032Z,31.23
2019-02-18T20:01:22.587Z,31.35
2019-02-18T20:03:51.258Z,27.77
2019-02-18T20:06:22.006Z,31.23
2019-02-18T20:08:50.201Z,30.95
2019-02-18T20:11:18.334Z,32.98
2019-02-18T20:13:46.506Z,31.40
2019-02-18T20:16:14.898Z,32.63
2019-02-18T20:18:42.978Z,32.45
2019-02-18T20:21:11.142Z,32.30
2019-02-18T20:23:39.269Z,34.20
2019-02-18T20:26:07.764Z,35.68
2019-02-18T20:28:36.148Z,33.60
2019-02-18T20:31:04.277Z,35.05
2019-02-18T20:33:32.665Z,33.98
2019-02-18T20:36:01.014Z,35.48
2019-02-18T20:38:29.408Z,36.13
2019-02-18T20:40:57.539Z,35.50
2019-02-18T20:43:25.706Z,32.97
2019-02-18T20:45:53.878Z,33.90
2019-02-18T20:48:22.380Z,33.53
2019-02-18T20:50:50.551Z,32.00
2019-02-18T20:53:18.689Z,33.78
2019-02-18T20:55:46.824Z,36.65
2019-02-18T20:58:14.977Z,31.93
2019-02-18T21:00:43.112Z,32.70
2019-02-18T21:03:11.314Z,32.00
2019-02-18T21:05:39.450Z,34.18
2019-02-18T21:08:07.667Z,36.45
2019-02-18T21:10:35.812Z,36.20
2019-02-18T21:13:03.972Z,36.40
2019-02-18T21:15:32.114Z,40.45
2019-02-18T21:18:00.374Z,39.90
2019-02-18T21:20:28.833Z,41.80
2019-02-18T21:22:57.046Z,43.55
2019-02-18T21:25:25.292Z,43.23
2019-02-18T21:27:53.431Z,43.28
2019-02-18T21:30:21.555Z,42.85
2019-02-18T21:32:49.886Z,44.10
2019-02-18T21:35:18.010Z,44.97
2019-02-18T21:37:46.549Z,44.85
2019-02-18T21:40:14.702Z,43.17
2019-02-18T21:42:42.833Z,42.62
2019-02-18T21:45:12.434Z,44.13
2019-02-18T21:47:40.606Z,44.25
2019-02-18T21:50:09.497Z,43.20
2019-02-18T21:52:37.933Z,42.98
2019-02-18T21:55:07.540Z,41.30
2019-02-18T21:57:55.184Z,42.63
2019-02-18T22:00:24.082Z,44.33
2019-02-18T22:02:52.229Z,44.73
2019-02-18T22:05:20.369Z,44.42
2019-02-18T22:07:48.598Z,42.73
2019-02-18T22:10:16.740Z,41.70
2019-02-18T22:12:44.882Z,40.85
2019-02-18T22:15:14.181Z,43.60
2019-02-18T22:17:42.329Z,42.73
2019-02-18T22:20:11.226Z,40.70
2019-02-18T22:22:39.357Z,44.23
2019-02-18T22:25:11.076Z,41.37
2019-02-18T22:27:39.322Z,43.25
2019-02-18T22:30:09.117Z,40.88
2019-02-18T22:32:37.241Z,42.48
2019-02-18T22:35:05.856Z,43.68
2019-02-18T22:37:34.281Z,41.50
2019-02-18T22:40:03.332Z,43.52
2019-02-18T22:42:31.478Z,41.68
2019-02-18T22:44:59.609Z,43.38
2019-02-18T22:47:27.754Z,42.30
2019-02-18T22:49:55.891Z,41.08
2019-02-18T22:52:24.017Z,42.10
2019-02-18T22:54:52.663Z,40.85
2019-02-18T22:57:20.797Z,42.40
2019-02-18T22:59:48.937Z,42.40
2019-02-18T23:02:17.150Z,41.40
2019-02-18T23:04:45.306Z,40.90
2019-02-18T23:07:13.435Z,41.80
2019-02-18T23:09:41.564Z,40.60
2019-02-18T23:12:10.022Z,40.48
2019-02-18T23:14:38.163Z,44.75
2019-02-18T23:17:06.292Z,39.60
2019-02-18T23:19:34.444Z,40.67
2019-02-18T23:22:02.632Z,41.00
2019-02-18T23:24:30.811Z,39.80
2019-02-18T23:26:58.959Z,42.77
2019-02-18T23:29:27.385Z,39.63
2019-02-18T23:31:55.510Z,40.15
2019-02-18T23:34:23.662Z,40.95
2019-02-18T23:36:51.802Z,39.45
2019-02-18T23:39:19.968Z,41.88
2019-02-18T23:41:48.097Z,41.37
2019-02-18T23:44:16.285Z,43.17
2019-02-18T23:46:44.460Z,39.10
2019-02-18T23:49:12.606Z,42.27
2019-02-18T23:51:40.734Z,41.92
2019-02-18T23:54:08.878Z,40.85
2019-02-18T23:56:37.173Z,39.83
2019-02-18T23:59:05.326Z,39.80
